Tropical Cyclones
[Index]
Main Index Home Page Stock Weather Photos Extreme Storms Discussion Storm News and Storm Chasing Reports Tropical Cyclones / Hurricanes / Typhoons Weather Data and Links Wild Fires / Bushfires Weather Observation Techniques Weather Picture Catalogue Tornado Pictures and Reports Stock Video Footage and DVDs for sale
Season 1995-1996 Tropical Cyclone ISOBEL Track Map
Season 1995-1996 Summaries: [BoM-AU] [JTWC-AU] [JTWC-SIO] [JTWC-SPAC] [JTWC-SH]
<<- Previous TC | JTWC 1995-1996 Season | Next TC ->>

click for intensity scale information  Lat/long Grid: Show Hide

 Date Labels: Show Hide

Joint Typhoon Warning Centre Cyclone Data

Name: ISOBEL

25 Jan 1996 00:00 UTC to 31 Jan 1996 18:00 UTC

    date/time    lat    long     hPa   cat  kts
1996-01-25 00   14.2   124.9                  15          
1996-01-25 06   14.1   124.6                  15          
1996-01-25 12   14.0   124.4                  15          
1996-01-25 18   13.8   124.3                  15          
1996-01-26 00   13.6   124.2                  15          
1996-01-26 06   13.3   124.0                  15          
1996-01-26 12   13.0   123.9                  15          
1996-01-26 18   12.8   123.8                  15          
1996-01-27 00   12.6   123.6                  15          
1996-01-27 06   12.5   123.2                  20          
1996-01-27 12   12.6   122.7                  25          
1996-01-27 18   12.7   121.9                  30          
1996-01-28 00   12.7   121.0                  30          
1996-01-28 06   12.7   120.1                  30          
1996-01-28 12   12.8   119.2                  35          
1996-01-28 18   12.9   118.3            1     40          
1996-01-29 00   13.1   117.4            1     45          
1996-01-29 06   13.6   116.6            1     45          
1996-01-29 12   14.0   116.2            1     45          
1996-01-29 18   14.4   116.0            1     45          
1996-01-30 00   14.6   115.8            1     45          
1996-01-30 06   14.9   115.6            1     45          
1996-01-30 12   15.2   115.4            1     45          
1996-01-30 18   15.5   115.3            1     40          
1996-01-31 00   15.9   115.1            1     40          
1996-01-31 06   16.3   115.0                  35          
1996-01-31 12   16.6   114.7                  30          
1996-01-31 18   16.9   114.4                  25          
Winds are 1-min average.

Tropical cyclone tracks developed by Michael Bath using data from the Joint Typhoon Warning Centre Best Tracks and Google Maps.


[Australian Severe Weather index] [Copyright Notice] [Email Contacts] [Search This Site] [Privacy Policy]
Document: tropical_cyclone_isobel.htm Updated: 18 September 2016